Terminal Aerodrome Forecast
Issued by NWS Anchorage, AK

Home | Current Version | Previous Version | Text Only | Print | Product List | Glossary On
Versions: 1 2 3 4 5 6 7 8 9 10 11 12 13 14 15 16 17 18 19
000
FTAK31 PANC 220137 AAB
TAFANC
TAF AMD
PANC 220137Z 2202/2306 01005KT 6SM -SN BR SCT030 OVC045
      TEMPO 2202/2204 3SM -SN BKN022
     FM220600 35004KT P6SM VCSH BKN100
     FM220900 VRB03KT P6SM SCT020
     FM221800 02003KT P6SM SCT070=

USA.gov is the U.S. government's official web portal to all federal, state and local government web resources and services.